createdAt,value
2023-01-11T00:00:15.053Z,100651.41
2023-01-11T00:01:48.936Z,100661.88
2023-01-11T00:03:20.583Z,100655.66
2023-01-11T00:04:52.262Z,100652.03
2023-01-11T00:06:25.564Z,100646.75
2023-01-11T00:07:57.205Z,100644.97
2023-01-11T00:09:28.943Z,100649.31
2023-01-11T00:11:02.222Z,100637.91
2023-01-11T00:12:33.914Z,100638.63
2023-01-11T00:14:05.646Z,100639.44
2023-01-11T00:15:38.529Z,100639.41
2023-01-11T00:17:10.333Z,100639.41
2023-01-11T00:18:41.994Z,100628.00
2023-01-11T00:20:13.704Z,100632.34
2023-01-11T00:21:48.856Z,100617.50
2023-01-11T00:23:20.767Z,100634.91
2023-01-11T00:24:52.394Z,100624.31
2023-01-11T00:26:24.042Z,100620.84
2023-01-11T00:27:55.722Z,100622.59
2023-01-11T00:29:27.476Z,100624.38
2023-01-11T00:30:59.507Z,100627.81
2023-01-11T00:32:31.221Z,100619.84
2023-01-11T00:34:02.916Z,100621.53
2023-01-11T00:35:34.766Z,100628.47
2023-01-11T00:37:07.943Z,100618.84
2023-01-11T00:38:53.593Z,100623.09
2023-01-11T00:40:26.318Z,100619.50
2023-01-11T00:42:16.664Z,100619.50
2023-01-11T00:44:06.969Z,100616.81
2023-01-11T00:45:57.506Z,100610.78
2023-01-11T00:47:48.037Z,100602.78
2023-01-11T00:49:19.695Z,100610.66
2023-01-11T00:50:53.721Z,100608.81
2023-01-11T00:52:27.046Z,100601.81
2023-01-11T00:53:58.718Z,100609.56
2023-01-11T00:55:31.989Z,100606.03
2023-01-11T00:57:06.307Z,100604.22
2023-01-11T00:58:37.914Z,100593.72
2023-01-11T01:00:11.183Z,100600.69
2023-01-11T01:01:42.926Z,100604.13
2023-01-11T01:03:14.627Z,100604.97
2023-01-11T01:04:46.271Z,100600.63
2023-01-11T01:06:18.073Z,100604.97
2023-01-11T01:07:52.643Z,100604.94
2023-01-11T01:09:24.418Z,100599.69
2023-01-11T01:10:58.203Z,100598.81
2023-01-11T01:13:02.380Z,100595.28
2023-01-11T01:14:34.268Z,100597.72
2023-01-11T01:16:06.531Z,100588.94
2023-01-11T01:17:38.325Z,100592.38
2023-01-11T01:19:10.277Z,100596.75
2023-01-11T01:20:41.979Z,100590.53
2023-01-11T01:22:13.725Z,100587.00
2023-01-11T01:23:46.969Z,100591.34
2023-01-11T01:25:18.689Z,100587.75
2023-01-11T01:26:50.411Z,100592.09
2023-01-11T01:28:22.316Z,100585.09
2023-01-11T01:29:54.119Z,100584.03
2023-01-11T01:31:28.261Z,100575.25
2023-01-11T01:33:00.300Z,100568.22
2023-01-11T01:34:31.999Z,100578.56
2023-01-11T01:36:04.827Z,100567.09
2023-01-11T01:37:36.549Z,100569.72
2023-01-11T01:39:11.966Z,100567.03
2023-01-11T01:40:44.618Z,100566.03
2023-01-11T01:42:18.156Z,100563.50
2023-01-11T01:43:52.552Z,100570.53
2023-01-11T01:45:25.633Z,100567.00
2023-01-11T01:46:57.388Z,100566.03
2023-01-11T01:48:29.137Z,100561.72
2023-01-11T01:50:04.625Z,100567.72
2023-01-11T01:51:42.018Z,100568.56
2023-01-11T01:53:18.054Z,100563.31
2023-01-11T01:54:51.088Z,100564.16
2023-01-11T01:56:28.197Z,100563.31
2023-01-11T01:58:02.366Z,100565.88
2023-01-11T01:59:34.426Z,100564.06
2023-01-11T02:01:38.700Z,100557.94
2023-01-11T02:03:16.081Z,100565.88
2023-01-11T02:04:48.806Z,100558.91
2023-01-11T02:06:22.738Z,100563.25
2023-01-11T02:07:57.362Z,100568.34
2023-01-11T02:09:36.198Z,100563.19
2023-01-11T02:11:29.851Z,100568.50
2023-01-11T02:13:05.705Z,100565.13
2023-01-11T02:14:38.827Z,100571.38
2023-01-11T02:16:13.464Z,100560.06
2023-01-11T02:17:46.939Z,100565.38
2023-01-11T02:19:29.412Z,100561.88
2023-01-11T02:21:19.549Z,100559.25
2023-01-11T02:23:21.190Z,100545.81
2023-01-11T02:25:35.535Z,100552.03
2023-01-11T02:27:28.782Z,100546.03
2023-01-11T02:29:09.675Z,100543.50
2023-01-11T02:30:50.301Z,100542.81
2023-01-11T02:32:28.988Z,100538.47
2023-01-11T02:34:15.957Z,100534.91
2023-01-11T02:35:58.087Z,100542.00
2023-01-11T02:37:40.733Z,100533.16
2023-01-11T02:39:19.933Z,100535.66
2023-01-11T02:40:56.230Z,100519.78
2023-01-11T02:42:55.727Z,100525.91
2023-01-11T02:44:55.008Z,100525.75
2023-01-11T02:46:32.965Z,100527.47
2023-01-11T02:48:14.459Z,100513.44
2023-01-11T02:49:52.079Z,100523.03
2023-01-11T02:51:31.507Z,100522.97
2023-01-11T02:53:07.884Z,100515.03
2023-01-11T02:54:43.715Z,100510.63
2023-01-11T02:56:18.733Z,100509.66
2023-01-11T02:57:52.998Z,100500.88
2023-01-11T02:59:31.090Z,100512.28
2023-01-11T03:01:03.931Z,100508.75
2023-01-11T03:02:35.695Z,100504.31
2023-01-11T03:04:23.103Z,100498.91
2023-01-11T03:05:57.627Z,100483.94
2023-01-11T03:07:48.755Z,100489.97
2023-01-11T03:09:25.024Z,100489.97
2023-01-11T03:11:03.475Z,100493.53
2023-01-11T03:12:52.633Z,100494.28
2023-01-11T03:14:29.840Z,100484.56
2023-01-11T03:16:27.127Z,100487.00
2023-01-11T03:18:11.505Z,100480.03
2023-01-11T03:19:51.101Z,100480.91
2023-01-11T03:21:35.100Z,100477.25
2023-01-11T03:23:16.574Z,100479.84
2023-01-11T03:24:52.687Z,100485.94
2023-01-11T03:26:33.807Z,100483.44
2023-01-11T03:28:14.865Z,100493.03
2023-01-11T03:29:52.351Z,100487.66
2023-01-11T03:31:34.176Z,100496.34
2023-01-11T03:33:11.572Z,100497.22
2023-01-11T03:34:52.791Z,100493.72
2023-01-11T03:36:30.107Z,100497.16
2023-01-11T03:38:06.289Z,100486.63
2023-01-11T03:39:43.744Z,100483.94
2023-01-11T03:41:21.070Z,100482.13
2023-01-11T03:43:12.880Z,100498.59
2023-01-11T03:44:50.140Z,100495.84
2023-01-11T03:46:25.053Z,100500.19
2023-01-11T03:48:01.291Z,100487.91
2023-01-11T03:49:36.938Z,100488.75
2023-01-11T03:51:14.041Z,100479.94
2023-01-11T03:52:46.101Z,100481.66
2023-01-11T03:54:21.839Z,100483.50
2023-01-11T03:55:57.301Z,100483.50
2023-01-11T03:57:32.698Z,100471.09
2023-01-11T03:59:04.820Z,100469.91
2023-01-11T04:00:37.714Z,100467.72
2023-01-11T04:02:16.138Z,100469.91
2023-01-11T04:03:49.114Z,100469.44
2023-01-11T04:05:21.279Z,100465.72
2023-01-11T04:06:53.133Z,100469.94
2023-01-11T04:08:24.865Z,100462.72
2023-01-11T04:09:58.466Z,100461.69
2023-01-11T04:11:30.216Z,100462.53
2023-01-11T04:13:01.844Z,100460.63
2023-01-11T04:14:33.521Z,100459.66
2023-01-11T04:16:05.708Z,100466.47
2023-01-11T04:17:37.454Z,100459.38
2023-01-11T04:19:10.454Z,100459.38
2023-01-11T04:20:42.152Z,100457.53
2023-01-11T04:22:14.103Z,100459.22
2023-01-11T04:23:45.739Z,100449.50
2023-01-11T04:25:17.468Z,100448.50
2023-01-11T04:26:49.339Z,100450.28
2023-01-11T04:28:21.066Z,100450.22
2023-01-11T04:29:52.698Z,100450.16
2023-01-11T04:31:24.512Z,100450.97
2023-01-11T04:32:57.676Z,100441.22
2023-01-11T04:34:30.652Z,100436.69
2023-01-11T04:36:04.993Z,100440.19
2023-01-11T04:37:36.674Z,100444.41
2023-01-11T04:39:10.672Z,100439.97
2023-01-11T04:40:42.327Z,100439.91
2023-01-11T04:42:19.827Z,100432.72
2023-01-11T04:43:54.947Z,100437.91
2023-01-11T04:45:26.606Z,100437.91
2023-01-11T04:46:58.312Z,100440.47
2023-01-11T04:48:29.951Z,100441.28
2023-01-11T04:50:03.002Z,100438.63
2023-01-11T04:51:34.693Z,100442.13
2023-01-11T04:53:06.308Z,100438.63
2023-01-11T04:54:38.048Z,100434.22
2023-01-11T04:56:12.046Z,100441.19
2023-01-11T04:57:43.686Z,100442.06
2023-01-11T04:59:15.310Z,100447.19
2023-01-11T05:00:47.023Z,100441.06
2023-01-11T05:02:19.179Z,100443.84
2023-01-11T05:03:51.290Z,100442.91
2023-01-11T05:05:24.340Z,100440.28
2023-01-11T05:06:56.064Z,100433.28
2023-01-11T05:08:30.343Z,100434.16
2023-01-11T05:10:02.167Z,100427.09
2023-01-11T05:11:33.813Z,100445.53
2023-01-11T05:13:05.478Z,100429.66
2023-01-11T05:14:37.090Z,100431.38
2023-01-11T05:16:10.415Z,100447.19
2023-01-11T05:17:42.117Z,100437.44
2023-01-11T05:19:13.805Z,100441.78
2023-01-11T05:20:49.959Z,100439.06
2023-01-11T05:22:21.601Z,100438.19
2023-01-11T05:23:54.214Z,100435.56
2023-01-11T05:25:25.834Z,100442.59
2023-01-11T05:26:57.887Z,100435.56
2023-01-11T05:28:29.507Z,100432.88
2023-01-11T05:30:01.340Z,100437.22
2023-01-11T05:31:34.765Z,100439.78
2023-01-11T05:33:06.446Z,100434.50
2023-01-11T05:34:38.199Z,100447.59
2023-01-11T05:36:13.799Z,100436.22
2023-01-11T05:37:45.417Z,100439.50
2023-01-11T05:39:17.070Z,100440.44
2023-01-11T05:40:54.698Z,100435.94
2023-01-11T05:42:26.302Z,100431.38
2023-01-11T05:44:16.476Z,100439.28
2023-01-11T05:45:48.235Z,100444.34
2023-01-11T05:47:21.215Z,100435.50
2023-01-11T05:48:54.530Z,100438.28
2023-01-11T05:50:26.729Z,100436.44
2023-01-11T05:51:59.865Z,100439.97
2023-01-11T05:53:31.532Z,100439.06
2023-01-11T05:55:03.326Z,100446.13
2023-01-11T05:56:35.180Z,100439.97
2023-01-11T05:58:06.964Z,100440.06
2023-01-11T05:59:38.709Z,100436.56
2023-01-11T06:01:12.698Z,100441.22
2023-01-11T06:02:44.494Z,100445.63
2023-01-11T06:04:16.184Z,100437.78
2023-01-11T06:05:47.859Z,100432.66
2023-01-11T06:07:20.961Z,100438.06
2023-01-11T06:08:52.750Z,100430.16
2023-01-11T06:10:24.445Z,100422.19
2023-01-11T06:11:56.142Z,100436.28
2023-01-11T06:13:27.919Z,100436.22
2023-01-11T06:14:59.658Z,100435.22
2023-01-11T06:16:31.407Z,100443.78
2023-01-11T06:18:03.103Z,100439.19
2023-01-11T06:19:34.951Z,100438.22
2023-01-11T06:21:07.713Z,100443.41
2023-01-11T06:22:40.732Z,100433.72
2023-01-11T06:24:12.445Z,100437.22
2023-01-11T06:25:45.361Z,100443.41
2023-01-11T06:27:17.908Z,100437.22
2023-01-11T06:28:50.045Z,100435.50
2023-01-11T06:30:21.917Z,100443.28
2023-01-11T06:31:53.660Z,100444.19
2023-01-11T06:33:26.771Z,100440.63
2023-01-11T06:34:58.510Z,100452.88
2023-01-11T06:36:30.393Z,100444.19
2023-01-11T06:38:03.406Z,100439.84
2023-01-11T06:39:35.194Z,100438.00
2023-01-11T06:41:10.629Z,100435.44
2023-01-11T06:42:42.408Z,100445.84
2023-01-11T06:44:14.177Z,100436.22
2023-01-11T06:45:45.845Z,100441.50
2023-01-11T06:47:17.567Z,100444.97
2023-01-11T06:48:49.267Z,100444.06
2023-01-11T06:50:20.936Z,100453.59
2023-01-11T06:51:52.602Z,100450.97
2023-01-11T06:53:28.646Z,100458.03
2023-01-11T06:55:01.184Z,100457.16
2023-01-11T06:56:32.844Z,100456.16
2023-01-11T06:58:04.534Z,100458.78
2023-01-11T06:59:36.243Z,100472.75
2023-01-11T07:01:07.984Z,100469.97
2023-01-11T07:02:39.814Z,100473.47
2023-01-11T07:04:13.181Z,100483.00
2023-01-11T07:05:45.066Z,100474.19
2023-01-11T07:07:16.869Z,100474.97
2023-01-11T07:08:49.874Z,100473.25
2023-01-11T07:10:21.545Z,100480.25
2023-01-11T07:11:53.240Z,100484.53
2023-01-11T07:13:26.482Z,100488.84
2023-01-11T07:14:58.195Z,100486.97
2023-01-11T07:16:29.993Z,100491.34
2023-01-11T07:18:02.257Z,100492.97
2023-01-11T07:19:33.909Z,100486.84
2023-01-11T07:21:05.892Z,100495.69
2023-01-11T07:22:37.584Z,100500.16
2023-01-11T07:24:10.765Z,100497.31
2023-01-11T07:25:42.673Z,100494.59
2023-01-11T07:27:14.794Z,100516.53
2023-01-11T07:28:46.475Z,100518.19
2023-01-11T07:30:18.495Z,100518.94
2023-01-11T07:31:50.128Z,100523.16
2023-01-11T07:33:21.911Z,100518.72
2023-01-11T07:34:53.832Z,100520.38
2023-01-11T07:36:27.840Z,100514.16
2023-01-11T07:37:59.744Z,100515.88
2023-01-11T07:39:42.690Z,100516.03
2023-01-11T07:41:34.183Z,100524.84
2023-01-11T07:43:14.485Z,100524.13
2023-01-11T07:44:46.157Z,100526.84
2023-01-11T07:46:18.012Z,100516.53
2023-01-11T07:47:51.047Z,100499.03
2023-01-11T07:49:22.781Z,100494.63
2023-01-11T07:50:54.994Z,100501.81
2023-01-11T07:52:26.693Z,100501.03
2023-01-11T07:54:02.366Z,100491.47
2023-01-11T07:55:36.073Z,100492.56
2023-01-11T07:57:07.711Z,100502.31
2023-01-11T07:58:39.512Z,100505.94
2023-01-11T08:00:12.817Z,100519.06
2023-01-11T08:01:44.819Z,100531.25
2023-01-11T08:03:16.643Z,100539.09
2023-01-11T08:04:48.544Z,100538.88
2023-01-11T08:06:20.175Z,100537.81
2023-01-11T08:07:51.844Z,100538.66
2023-01-11T08:09:23.472Z,100541.22
2023-01-11T08:11:14.956Z,100542.03
2023-01-11T08:13:06.398Z,100555.09
2023-01-11T08:14:40.926Z,100561.38
2023-01-11T08:16:12.650Z,100555.22
2023-01-11T08:17:44.519Z,100562.22
2023-01-11T08:19:16.419Z,100558.72
2023-01-11T08:20:48.635Z,100550.91
2023-01-11T08:22:20.316Z,100557.06
2023-01-11T08:23:53.066Z,100547.56
2023-01-11T08:25:25.116Z,100555.59
2023-01-11T08:26:58.211Z,100562.59
2023-01-11T08:28:29.906Z,100568.66
2023-01-11T08:30:01.733Z,100558.03
2023-01-11T08:31:33.344Z,100562.47
2023-01-11T08:33:05.466Z,100566.00
2023-01-11T08:34:37.159Z,100577.41
2023-01-11T08:36:11.409Z,100580.97
2023-01-11T08:37:43.111Z,100586.25
2023-01-11T08:39:14.758Z,100591.47
2023-01-11T08:40:46.521Z,100593.94
2023-01-11T08:42:19.633Z,100598.22
2023-01-11T08:43:52.016Z,100600.84
2023-01-11T08:45:23.830Z,100608.44
2023-01-11T08:46:55.595Z,100604.22
2023-01-11T08:48:27.306Z,100610.03
2023-01-11T08:49:59.470Z,100605.97
2023-01-11T08:51:31.184Z,100607.09
2023-01-11T08:53:04.519Z,100619.06
2023-01-11T08:54:36.183Z,100622.66
2023-01-11T08:56:08.696Z,100623.28
2023-01-11T08:57:41.770Z,100626.38
2023-01-11T08:59:13.942Z,100626.25
2023-01-11T09:00:45.853Z,100634.81
2023-01-11T09:02:17.728Z,100630.25
2023-01-11T09:03:49.361Z,100641.53
2023-01-11T09:05:21.083Z,100644.16
2023-01-11T09:06:53.431Z,100652.00
2023-01-11T09:08:25.872Z,100659.06
2023-01-11T09:09:57.526Z,100660.81
2023-01-11T09:11:47.938Z,100668.59
2023-01-11T09:13:21.088Z,100675.47
2023-01-11T09:14:52.942Z,100672.91
2023-01-11T09:16:24.654Z,100674.41
2023-01-11T09:17:56.656Z,100678.63
2023-01-11T09:19:28.430Z,100666.38
2023-01-11T09:21:00.142Z,100671.56
2023-01-11T09:22:31.821Z,100675.94
2023-01-11T09:24:04.539Z,100677.94
2023-01-11T09:25:36.295Z,100684.28
2023-01-11T09:27:08.065Z,100684.34
2023-01-11T09:28:41.480Z,100695.06
2023-01-11T09:30:15.132Z,100692.63
2023-01-11T09:31:46.815Z,100684.94
2023-01-11T09:33:18.521Z,100700.84
2023-01-11T09:34:53.307Z,100709.16
2023-01-11T09:36:27.736Z,100702.81
2023-01-11T09:37:59.893Z,100699.13
2023-01-11T09:39:31.570Z,100699.59
2023-01-11T09:41:17.142Z,100709.28
2023-01-11T09:42:51.379Z,100712.84
2023-01-11T09:44:26.741Z,100718.03
2023-01-11T09:46:06.766Z,100722.53
2023-01-11T09:47:45.554Z,100727.59
2023-01-11T09:49:22.705Z,100718.09
2023-01-11T09:50:55.740Z,100722.59
2023-01-11T09:52:32.900Z,100719.97
2023-01-11T09:54:07.866Z,100725.91
2023-01-11T09:55:42.369Z,100733.31
2023-01-11T09:57:23.794Z,100737.97
2023-01-11T09:59:05.431Z,100742.59
2023-01-11T10:00:50.548Z,100746.78
2023-01-11T10:02:33.258Z,100743.13
2023-01-11T10:04:43.184Z,100725.56
2023-01-11T10:06:22.395Z,100744.84
2023-01-11T10:18:27.831Z,100762.28
2023-01-11T10:18:31.570Z,100766.28
2023-01-11T10:19:17.091Z,100765.16
2023-01-11T10:20:46.509Z,100754.06
2023-01-11T10:22:31.574Z,100750.28
2023-01-11T10:24:08.475Z,100753.72
2023-01-11T10:25:51.429Z,100763.44
2023-01-11T10:27:33.710Z,100751.44
2023-01-11T10:29:16.928Z,100753.88
2023-01-11T10:31:11.222Z,100764.25
2023-01-11T10:33:14.417Z,100768.59
2023-01-11T10:35:05.411Z,100781.22
2023-01-11T10:37:11.934Z,100783.13
2023-01-11T10:39:08.572Z,100784.28
2023-01-11T10:41:08.590Z,100779.13
2023-01-11T10:42:44.142Z,100781.47
2023-01-11T10:44:23.504Z,100783.41
2023-01-11T10:45:58.201Z,100779.81
2023-01-11T10:47:36.480Z,100785.94
2023-01-11T10:49:30.050Z,100774.38
2023-01-11T10:51:11.992Z,100777.78
2023-01-11T10:52:52.917Z,100779.75
2023-01-11T10:54:33.378Z,100783.19
2023-01-11T10:56:22.305Z,100776.84
2023-01-11T10:58:07.627Z,100785.94
2023-01-11T11:00:15.090Z,100791.31
2023-01-11T11:02:00.619Z,100782.63
2023-01-11T11:03:51.503Z,100780.25
2023-01-11T11:05:35.528Z,100780.09
2023-01-11T11:07:17.995Z,100774.59
2023-01-11T11:08:58.964Z,100779.06
2023-01-11T11:10:36.417Z,100778.38
2023-01-11T11:12:12.632Z,100770.56
2023-01-11T11:13:51.473Z,100769.72
2023-01-11T11:15:31.853Z,100777.41
2023-01-11T11:17:13.543Z,100769.44
2023-01-11T11:18:45.456Z,100776.56
2023-01-11T11:20:19.332Z,100780.50
2023-01-11T11:21:52.521Z,100785.22
2023-01-11T11:23:27.580Z,100775.66
2023-01-11T11:25:03.743Z,100787.56
2023-01-11T11:26:41.216Z,100780.66
2023-01-11T11:28:25.702Z,100778.22
2023-01-11T11:29:57.523Z,100786.75
2023-01-11T11:31:31.163Z,100784.47
2023-01-11T11:33:07.678Z,100787.94
2023-01-11T11:34:47.108Z,100784.66
2023-01-11T11:36:18.845Z,100783.03
2023-01-11T11:37:54.691Z,100777.09
2023-01-11T11:39:29.117Z,100772.22
2023-01-11T11:41:06.677Z,100787.88
2023-01-11T11:42:38.296Z,100786.72
2023-01-11T11:44:17.638Z,100790.22
2023-01-11T11:45:58.091Z,100794.91
2023-01-11T11:47:29.831Z,100788.66
2023-01-11T11:49:13.122Z,100791.97
2023-01-11T11:50:46.384Z,100794.28
2023-01-11T11:52:18.227Z,100794.22
2023-01-11T11:53:55.704Z,100798.19
2023-01-11T11:55:30.732Z,100792.03
2023-01-11T11:57:14.427Z,100790.44
2023-01-11T11:58:47.042Z,100796.22
2023-01-11T12:00:25.353Z,100782.91
2023-01-11T12:02:00.550Z,100778.28
2023-01-11T12:03:33.725Z,100782.41
2023-01-11T12:05:07.524Z,100788.41
2023-01-11T12:06:40.812Z,100782.41
2023-01-11T12:08:15.920Z,100780.84
2023-01-11T12:09:55.449Z,100789.22
2023-01-11T12:11:34.080Z,100791.41
2023-01-11T12:13:26.980Z,100794.38
2023-01-11T12:15:18.405Z,100803.84
2023-01-11T12:16:50.223Z,100801.81
2023-01-11T12:18:28.388Z,100801.88
2023-01-11T12:20:00.149Z,100808.94
2023-01-11T12:21:31.888Z,100797.59
2023-01-11T12:23:15.400Z,100798.50
2023-01-11T12:25:03.670Z,100797.66
2023-01-11T12:26:39.815Z,100791.31
2023-01-11T12:28:28.157Z,100784.97
2023-01-11T12:30:21.824Z,100789.25
2023-01-11T12:32:28.586Z,100781.53
2023-01-11T12:34:13.031Z,100793.53
2023-01-11T12:35:53.776Z,100797.50
2023-01-11T12:37:39.299Z,100791.84
2023-01-11T12:39:21.325Z,100794.06
2023-01-11T12:41:08.755Z,100795.31
2023-01-11T12:43:07.288Z,100789.59
2023-01-11T12:44:53.653Z,100797.19
2023-01-11T12:46:39.137Z,100793.06
2023-01-11T12:48:32.067Z,100800.94
2023-01-11T12:50:13.977Z,100798.47
2023-01-11T12:52:01.079Z,100795.06
2023-01-11T12:53:45.844Z,100796.91
2023-01-11T12:55:33.448Z,100796.78
2023-01-11T12:57:19.656Z,100804.56
2023-01-11T12:58:57.023Z,100807.19
2023-01-11T13:01:22.306Z,100812.34
2023-01-11T13:03:37.605Z,100820.78
2023-01-11T13:05:23.413Z,100821.66
2023-01-11T13:07:03.210Z,100820.63
2023-01-11T13:08:53.032Z,100825.72
2023-01-11T13:10:35.228Z,100821.31
2023-01-11T13:12:15.839Z,100815.97
2023-01-11T13:13:54.571Z,100824.56
2023-01-11T13:15:41.854Z,100829.88
2023-01-11T13:17:24.680Z,100825.13
2023-01-11T13:19:03.031Z,100825.97
2023-01-11T13:20:59.849Z,100828.13
2023-01-11T13:22:38.129Z,100823.47
2023-01-11T13:24:14.861Z,100822.72
2023-01-11T13:25:49.263Z,100831.56
2023-01-11T13:27:26.268Z,100828.81
2023-01-11T13:29:02.204Z,100834.00
2023-01-11T13:30:34.334Z,100834.75
2023-01-11T13:32:11.672Z,100834.69
2023-01-11T13:33:48.910Z,100837.25
2023-01-11T13:35:31.878Z,100839.72
2023-01-11T13:37:12.664Z,100819.69
2023-01-11T13:38:51.685Z,100840.09
2023-01-11T13:40:27.745Z,100839.22
2023-01-11T13:42:04.398Z,100838.78
2023-01-11T13:43:42.087Z,100833.28
2023-01-11T13:45:18.520Z,100841.00
2023-01-11T13:47:00.137Z,100819.41
2023-01-11T13:48:37.480Z,100834.91
2023-01-11T13:50:18.867Z,100830.13
2023-01-11T13:51:56.119Z,100841.22
2023-01-11T13:53:36.776Z,100844.28
2023-01-11T13:55:25.032Z,100860.22
2023-01-11T13:57:02.490Z,100851.28
2023-01-11T13:58:38.323Z,100862.06
2023-01-11T14:00:21.220Z,100858.50
2023-01-11T14:01:59.171Z,100853.19
2023-01-11T14:03:36.730Z,100852.34
2023-01-11T14:05:14.978Z,100852.59
2023-01-11T14:07:01.325Z,100858.28
2023-01-11T14:08:54.020Z,100853.72
2023-01-11T14:10:38.755Z,100854.41
2023-01-11T14:12:20.429Z,100856.03
2023-01-11T14:14:13.615Z,100855.69
2023-01-11T14:15:57.083Z,100850.88
2023-01-11T14:17:44.411Z,100859.13
2023-01-11T14:19:23.769Z,100871.97
2023-01-11T14:21:03.967Z,100875.66
2023-01-11T14:22:42.220Z,100872.03
2023-01-11T14:24:16.980Z,100862.25
2023-01-11T14:26:07.455Z,100876.97
2023-01-11T14:28:03.946Z,100870.50
2023-01-11T14:30:07.026Z,100873.94
2023-01-11T14:31:54.238Z,100875.91
2023-01-11T14:34:10.950Z,100877.78
2023-01-11T14:35:59.614Z,100884.28
2023-01-11T14:37:57.906Z,100896.00
2023-01-11T14:39:45.381Z,100899.75
2023-01-11T14:42:01.751Z,100900.00
2023-01-11T14:43:56.737Z,100908.81
2023-01-11T14:45:40.884Z,100897.63
2023-01-11T14:47:35.569Z,100898.50
2023-01-11T14:49:20.197Z,100904.00
2023-01-11T14:51:15.005Z,100897.00
2023-01-11T14:52:49.970Z,100903.22
2023-01-11T14:54:25.483Z,100914.69
2023-01-11T14:55:57.246Z,100914.84
2023-01-11T14:57:40.496Z,100916.81
2023-01-11T14:59:26.592Z,100905.31
2023-01-11T15:01:06.431Z,100913.25
2023-01-11T15:02:39.482Z,100907.00
2023-01-11T15:04:20.555Z,100896.44
2023-01-11T15:05:55.655Z,100898.22
2023-01-11T15:07:35.311Z,100901.03
2023-01-11T15:09:42.726Z,100891.53
2023-01-11T15:11:24.629Z,100894.56
2023-01-11T15:12:58.261Z,100894.88
2023-01-11T15:14:33.797Z,100898.53
2023-01-11T15:16:26.964Z,100896.91
2023-01-11T15:18:18.067Z,100902.31
2023-01-11T15:19:51.519Z,100896.34
2023-01-11T15:21:27.029Z,100899.31
2023-01-11T15:23:02.584Z,100896.03
2023-01-11T15:24:39.677Z,100904.09
2023-01-11T15:26:12.851Z,100901.69
2023-01-11T15:27:44.532Z,100903.63
2023-01-11T15:29:21.891Z,100910.88
2023-01-11T15:30:53.756Z,100919.00
2023-01-11T15:32:27.552Z,100912.22
2023-01-11T15:34:04.825Z,100908.88
2023-01-11T15:35:37.054Z,100908.94
2023-01-11T15:37:32.530Z,100915.22
2023-01-11T15:39:07.712Z,100905.84
2023-01-11T15:40:42.021Z,100914.78
2023-01-11T15:42:54.653Z,100911.22
2023-01-11T15:44:41.174Z,100905.97
2023-01-11T15:46:55.244Z,100906.88
2023-01-11T15:48:38.006Z,100900.00
2023-01-11T15:50:45.758Z,100907.09
2023-01-11T15:53:02.064Z,100910.78
2023-01-11T15:54:52.551Z,100919.59
2023-01-11T15:56:57.234Z,100911.69
2023-01-11T15:58:58.416Z,100914.31
2023-01-11T16:01:07.945Z,100928.38
2023-01-11T16:03:08.643Z,100930.22
2023-01-11T16:04:45.525Z,100932.16
2023-01-11T16:06:28.275Z,100924.50
2023-01-11T16:08:12.795Z,100927.22
2023-01-11T16:10:02.746Z,100928.06
2023-01-11T16:11:43.524Z,100930.75
2023-01-11T16:13:29.693Z,100935.22
2023-01-11T16:15:16.334Z,100937.00
2023-01-11T16:16:52.646Z,100941.50
2023-01-11T16:18:29.180Z,100931.88
2023-01-11T16:20:21.023Z,100937.94
2023-01-11T16:21:58.991Z,100936.28
2023-01-11T16:23:32.452Z,100936.41
2023-01-11T16:25:07.423Z,100940.06
2023-01-11T16:26:41.337Z,100940.22
2023-01-11T16:28:17.205Z,100955.22
2023-01-11T16:29:50.428Z,100949.22
2023-01-11T16:31:22.137Z,100952.75
2023-01-11T16:33:13.673Z,100950.06
2023-01-11T16:34:47.088Z,100956.28
2023-01-11T16:36:21.193Z,100957.25
2023-01-11T16:37:58.497Z,100961.69
2023-01-11T16:39:33.655Z,100952.91
2023-01-11T16:41:07.084Z,100969.69
2023-01-11T16:42:43.766Z,100975.81
2023-01-11T16:44:24.852Z,100973.22
2023-01-11T16:45:56.715Z,100982.16
2023-01-11T16:47:28.479Z,100984.81
2023-01-11T16:49:08.894Z,100986.69
2023-01-11T16:50:44.089Z,100991.13
2023-01-11T16:52:38.991Z,100992.91
2023-01-11T16:54:16.858Z,100999.28
2023-01-11T16:55:56.676Z,101000.25
2023-01-11T16:57:32.999Z,100999.47
2023-01-11T16:59:07.363Z,101010.09
2023-01-11T17:00:39.879Z,101003.09
2023-01-11T17:02:28.562Z,101011.88
2023-01-11T17:04:01.484Z,101013.81
2023-01-11T17:05:34.727Z,101017.38
2023-01-11T17:07:13.235Z,101012.16
2023-01-11T17:08:47.323Z,101013.06
2023-01-11T17:10:23.415Z,101022.75
2023-01-11T17:11:56.730Z,101018.41
2023-01-11T17:13:53.489Z,101017.53
2023-01-11T17:15:31.509Z,101038.56
2023-01-11T17:17:05.399Z,101038.56
2023-01-11T17:18:39.814Z,101038.53
2023-01-11T17:20:18.493Z,101049.00
2023-01-11T17:21:52.731Z,101046.38
2023-01-11T17:23:24.520Z,101042.09
2023-01-11T17:24:59.031Z,101036.97
2023-01-11T17:26:36.926Z,101034.50
2023-01-11T17:28:17.578Z,101018.78
2023-01-11T17:29:53.681Z,101012.00
2023-01-11T17:31:28.196Z,101011.19
2023-01-11T17:33:01.424Z,101000.81
2023-01-11T17:34:34.974Z,101008.78
2023-01-11T17:36:07.795Z,101006.31
2023-01-11T17:37:39.855Z,101008.16
2023-01-11T17:39:20.250Z,101009.97
2023-01-11T17:40:53.251Z,101006.50
2023-01-11T17:42:45.102Z,100997.91
2023-01-11T17:44:37.939Z,101003.16
2023-01-11T17:46:16.888Z,101006.75
2023-01-11T17:47:52.554Z,101003.34
2023-01-11T17:49:25.642Z,101012.13
2023-01-11T17:50:59.431Z,101005.19
2023-01-11T17:52:38.985Z,101008.72
2023-01-11T17:54:20.468Z,101014.88
2023-01-11T17:55:54.364Z,101022.72
2023-01-11T17:57:27.457Z,101010.41
2023-01-11T17:59:16.571Z,101020.84
2023-01-11T18:01:21.028Z,101027.69
2023-01-11T18:02:53.860Z,101033.81
2023-01-11T18:04:27.165Z,101030.28
2023-01-11T18:06:10.611Z,101027.69
2023-01-11T18:07:43.566Z,101019.94
2023-01-11T18:09:22.835Z,101030.44
2023-01-11T18:10:55.467Z,101029.63
2023-01-11T18:12:32.824Z,101031.41
2023-01-11T18:14:07.146Z,101027.03
2023-01-11T18:15:38.843Z,101029.69
2023-01-11T18:17:30.668Z,101019.19
2023-01-11T18:19:23.235Z,101029.66
2023-01-11T18:20:54.957Z,101023.66
2023-01-11T18:22:29.994Z,101041.19
2023-01-11T18:24:43.195Z,101039.34
2023-01-11T18:26:26.324Z,101040.25
2023-01-11T18:28:25.802Z,101028.06
2023-01-11T18:30:01.186Z,101034.34
2023-01-11T18:31:32.950Z,101028.25
2023-01-11T18:33:11.474Z,101026.47
2023-01-11T18:34:47.932Z,101020.38
2023-01-11T18:36:21.377Z,101012.56
2023-01-11T18:37:53.114Z,101015.22
2023-01-11T18:39:25.081Z,101011.75
2023-01-11T18:40:59.256Z,101021.38
2023-01-11T18:42:31.417Z,101013.50
2023-01-11T18:44:04.904Z,101017.91
2023-01-11T18:45:36.781Z,101016.09